»·PEaware :: N321TB KAJO-KVCV

N321TB :: KAJO-KVCV

FLIGHT INFORMATION

Flight Status: Arrived
Operator: Privately registered:
United States
More flights under this callsign
Pilot: Martin K. (31672)
Aircraft: CESSNA 172 SKYHAWK
(C172)
More flights by this aircraft type
Origin: KAJO Corona Mun
United States
Destination: KVCV Socal Logistics
United States
More flights between these airports :: More routes between these airports
Route: PDZ V442 APLES
File this flight plan on PilotEdge
Remarks:
Altitude:
(Current/Filed)
9,000ft
Speed:
(Current/Filed)
120kts
Departed: 09-Nov-20 01:26 PM
Arrived: 09-Nov-20 02:35 PM
Distance/Time
Traveled:
43nm/1:09
Distance/Time
To Go:
Arrived

Flight Plot

Page will automatically refresh every two minutes.


Map Options




Map Legend


Flown Route
Filed Route
Departure Airport
Arrival Airport
Navaid (VOR, NDB)
Fix

Horizontal Profiles

Position Reports

Time Latitude Longitude Heading Altitude Ground
Speed
09-Nov-20 13:15 33.897053 -117.607251 356 537ft 0kts
09-Nov-20 13:16 33.897053 -117.607251 356 537ft 0kts
09-Nov-20 13:17 33.897053 -117.607251 356 537ft 0kts
09-Nov-20 13:18 33.897053 -117.607251 356 537ft 0kts
09-Nov-20 13:19 33.897053 -117.607251 356 537ft 0kts
09-Nov-20 13:20 33.897053 -117.607251 356 537ft 0kts
09-Nov-20 13:21 33.897053 -117.607251 356 537ft 0kts
09-Nov-20 13:22 33.897223 -117.607560 297 537ft 0kts
09-Nov-20 13:23 33.897223 -117.607560 297 537ft 0kts
09-Nov-20 13:24 33.897223 -117.607560 297 537ft 0kts
09-Nov-20 13:25 33.897854 -117.593715 86 799ft 84kts
09-Nov-20 13:26 33.907383 -117.567257 64 1604ft 95kts
09-Nov-20 13:27 33.916920 -117.536232 67 2307ft 101kts
09-Nov-20 13:28 33.935057 -117.512070 38 3057ft 96kts
09-Nov-20 13:29 33.948128 -117.485757 111 3833ft 105kts
09-Nov-20 13:30 33.923261 -117.486841 219 4603ft 107kts
09-Nov-20 13:31 33.900065 -117.509185 233 5353ft 108kts
09-Nov-20 13:32 33.913278 -117.529433 23 5907ft 108kts
09-Nov-20 13:33 33.937707 -117.502875 40 5966ft 123kts
09-Nov-20 13:34 33.936421 -117.467648 154 5943ft 134kts
09-Nov-20 13:35 33.904736 -117.483671 220 5954ft 130kts
09-Nov-20 13:36 33.885215 -117.516672 287 5938ft 124kts
09-Nov-20 13:37 33.911750 -117.520160 39 6004ft 120kts
09-Nov-20 13:38 33.933354 -117.495043 38 6747ft 100kts
09-Nov-20 13:39 33.958091 -117.483028 10 7362ft 98kts
09-Nov-20 13:40 33.984240 -117.474131 10 7952ft 97kts
09-Nov-20 13:41 34.010431 -117.467825 355 8466ft 97kts
09-Nov-20 13:42 34.036945 -117.458895 17 8941ft 101kts
09-Nov-20 13:43 34.064968 -117.442129 21 8985ft 118kts
09-Nov-20 13:44 34.094543 -117.424266 21 8984ft 118kts
09-Nov-20 13:45 34.124091 -117.406482 22 8986ft 118kts
09-Nov-20 13:46 34.153387 -117.388832 22 8986ft 117kts
09-Nov-20 13:47 34.182562 -117.371221 22 8986ft 117kts
09-Nov-20 13:48 34.211778 -117.353626 22 8986ft 117kts
09-Nov-20 13:49 34.241040 -117.335959 23 8985ft 117kts
09-Nov-20 13:50 34.270173 -117.318329 22 8985ft 117kts
09-Nov-20 13:51 34.299238 -117.300804 23 8985ft 117kts
09-Nov-20 13:52 34.328336 -117.283198 23 8985ft 116kts
09-Nov-20 13:53 34.357375 -117.265609 23 8985ft 116kts
09-Nov-20 13:54 34.386256 -117.248094 23 8985ft 116kts
09-Nov-20 13:55 34.415103 -117.230579 23 8985ft 116kts
09-Nov-20 13:56 34.443904 -117.213095 23 8985ft 116kts
09-Nov-20 13:57 34.472725 -117.195580 22 8985ft 116kts
09-Nov-20 13:58 34.501997 -117.177799 23 8985ft 118kts
09-Nov-20 13:59 34.531448 -117.159866 23 8985ft 118kts
09-Nov-20 14:00 34.562093 -117.146356 7 8939ft 119kts
09-Nov-20 14:01 34.595343 -117.142990 358 8437ft 119kts
09-Nov-20 14:02 34.628367 -117.146433 350 7933ft 119kts
09-Nov-20 14:03 34.660395 -117.156349 341 7430ft 119kts
09-Nov-20 14:04 34.690715 -117.172470 333 6927ft 119kts
09-Nov-20 14:05 34.718146 -117.194083 324 6599ft 111kts
09-Nov-20 14:06 34.741130 -117.219192 316 6597ft 111kts
09-Nov-20 14:07 34.760788 -117.248342 308 6595ft 112kts
09-Nov-20 14:08 34.776699 -117.281097 299 6595ft 113kts
09-Nov-20 14:09 34.788990 -117.318955 289 6045ft 124kts
09-Nov-20 14:10 34.796112 -117.360478 278 5442ft 126kts
09-Nov-20 14:11 34.773072 -117.379503 165 4919ft 121kts
09-Nov-20 14:12 34.739959 -117.377552 183 4602ft 118kts
09-Nov-20 14:13 34.707319 -117.380137 184 4350ft 114kts
09-Nov-20 14:14 34.674935 -117.383031 184 4035ft 124kts
09-Nov-20 14:15 34.643787 -117.387217 176 3319ft 95kts
09-Nov-20 14:16 34.618301 -117.386794 179 3387ft 92kts
09-Nov-20 14:17 34.593444 -117.391651 238 3891ft 95kts
09-Nov-20 14:18 34.603789 -117.418866 310 4387ft 96kts
09-Nov-20 14:19 34.614058 -117.447839 282 4886ft 96kts
09-Nov-20 14:20 34.618921 -117.480138 281 5375ft 105kts
09-Nov-20 14:21 34.618071 -117.517471 279 5883ft 113kts
09-Nov-20 14:22 34.624538 -117.556719 285 5950ft 121kts
09-Nov-20 14:23 34.623830 -117.595333 221 5894ft 126kts
09-Nov-20 14:24 34.590016 -117.597560 131 5389ft 133kts
09-Nov-20 14:25 34.572695 -117.557849 124 4795ft 134kts
09-Nov-20 14:26 34.551426 -117.521825 108 4216ft 124kts
09-Nov-20 14:27 34.556069 -117.482623 61 3939ft 118kts
09-Nov-20 14:28 34.568891 -117.447946 69 4014ft 110kts
09-Nov-20 14:29 34.581876 -117.414648 31 3929ft 109kts
09-Nov-20 14:30 34.611038 -117.410138 5 3894ft 105kts
09-Nov-20 14:31 34.636338 -117.401818 81 3602ft 96kts
09-Nov-20 14:32 34.618335 -117.386711 180 2923ft 94kts
09-Nov-20 14:33 34.601083 -117.386571 179 2848ft 42kts
09-Nov-20 14:34 34.594896 -117.385302 89 2859ft 0kts
09-Nov-20 14:35 34.594896 -117.385301 89 2859ft 0kts
09-Nov-20 14:36 34.591797 -117.380237 135 2868ft 25kts
09-Nov-20 14:37 34.590552 -117.375561 44 2869ft 19kts
09-Nov-20 14:38 34.591810 -117.371302 116 2868ft 11kts
09-Nov-20 14:39 34.591178 -117.369834 91 2869ft 0kts
09-Nov-20 14:40 34.591178 -117.369834 91 2869ft 0kts
09-Nov-20 14:41 34.591178 -117.369834 91 2869ft 0kts

Navigation Log

Ident Type
Flight plan parsing failed, navigation log unavailable